Terminal Aerodrome Forecast
Issued by NWS Omaha/Valley, NE

Home | Current Version | Previous Version | Text Only | Print | Product List | Glossary On
Versions: 1 2 3 4 5 6 7 8 9 10 11 12 13 14 15 16 17 18 19 20 21 22 23 24 25 26 27 28 29 30 31 32 33 34 35 36
076
FTUS43 KOAX 010618 AAA
TAFLNK
TAF AMD
KLNK 010618Z 0106/0206 05008KT P6SM OVC004
      TEMPO 0106/0110 4SM -DZ BR OVC003
     FM011000 01013KT 3SM -DZ BR OVC004
     FM011500 36016G22KT 4SM -RA BR OVC007
     FM011900 36015G22KT P6SM OVC015
     FM012200 36014KT P6SM OVC030
     FM020100 35006KT P6SM OVC050=

USA.gov is the U.S. government's official web portal to all federal, state and local government web resources and services.